Time;durP1;ratioP1;P1;durP2;ratioP2;P2;SDS_P1;SDS_P2;PMS_P1;PMS_P2;Temp;Humidity;BMP_temperature;BMP_pressure;BME280_temperature;BME280_humidity;BME280_pressure;Samples;Min_cycle;Max_cycle;Signal;HPM_P1;HPM_P2
2021/08/15 00:01:35;;;;;;;4.30;1.85;;;;;;;;;;5053426;28;20489;-69
2021/08/15 00:04:02;;;;;;;2.67;1.65;;;;;;;;;;5042380;28;20071;-69
2021/08/15 00:06:29;;;;;;;3.08;1.30;;;;;;;;;;5051160;28;20091;-69
2021/08/15 00:08:56;;;;;;;2.15;1.15;;;;;;;;;;5062278;28;20035;-69
2021/08/15 00:11:24;;;;;;;2.72;0.85;;;;;;;;;;5050862;28;20064;-70
2021/08/15 00:13:51;;;;;;;2.00;0.90;;;;;;;;;;5050382;28;20047;-70
2021/08/15 00:16:18;;;;;;;4.85;2.20;;;;;;;;;;5030852;28;20069;-70
2021/08/15 00:18:45;;;;;;;4.05;1.60;;;;;;;;;;5043588;28;20508;-70
2021/08/15 00:21:15;;;;;;;3.78;1.30;;;;;;;;;;5042579;28;20065;-69
2021/08/15 00:23:42;;;;;;;8.68;3.00;;;;;;;;;;5063491;28;20041;-69
2021/08/15 00:26:09;;;;;;;4.28;2.53;;;;;;;;;;5051216;28;20363;-69
2021/08/15 00:28:37;;;;;;;9.55;4.03;;;;;;;;;;5050858;28;20040;-69
2021/08/15 00:31:04;;;;;;;9.00;2.58;;;;;;;;;;5053207;28;20051;-70
2021/08/15 00:33:31;;;;;;;12.95;4.68;;;;;;;;;;5050958;28;20033;-69
2021/08/15 00:35:58;;;;;;;6.45;2.05;;;;;;;;;;5051549;28;20033;-69
2021/08/15 00:38:26;;;;;;;2.53;1.08;;;;;;;;;;5035001;28;20041;-69
2021/08/15 00:40:53;;;;;;;2.78;0.80;;;;;;;;;;5029752;28;20059;-69
2021/08/15 00:43:20;;;;;;;4.43;0.70;;;;;;;;;;5025378;28;20033;-69
2021/08/15 00:45:47;;;;;;;1.75;0.50;;;;;;;;;;5045801;28;20482;-70
2021/08/15 00:48:14;;;;;;;2.17;0.50;;;;;;;;;;5046055;28;20045;-69
2021/08/15 00:50:41;;;;;;;2.80;0.40;;;;;;;;;;5048477;28;20111;-68
2021/08/15 00:53:08;;;;;;;1.15;0.50;;;;;;;;;;5048171;28;20032;-69
2021/08/15 00:55:35;;;;;;;1.20;0.30;;;;;;;;;;5052517;28;20083;-68
2021/08/15 00:58:07;;;;;;;1.05;0.40;;;;;;;;;;5047166;28;20053;-69
2021/08/15 01:00:35;;;;;;;1.42;0.82;;;;;;;;;;5050342;28;20438;-69
2021/08/15 01:03:02;;;;;;;2.70;0.70;;;;;;;;;;5056065;28;20037;-70
2021/08/15 01:05:31;;;;;;;1.27;0.30;;;;;;;;;;5058524;28;20401;-69
2021/08/15 01:08:02;;;;;;;0.82;0.40;;;;;;;;;;5052370;28;20095;-69
2021/08/15 01:10:30;;;;;;;1.08;0.47;;;;;;;;;;5048222;28;20037;-69
2021/08/15 01:12:57;;;;;;;3.95;0.60;;;;;;;;;;5050305;28;20383;-70
2021/08/15 01:15:24;;;;;;;1.25;0.60;;;;;;;;;;5040510;28;20032;-70
2021/08/15 01:17:51;;;;;;;2.13;1.13;;;;;;;;;;5048822;28;20505;-70
2021/08/15 01:20:18;;;;;;;1.48;0.60;;;;;;;;;;5051601;28;20033;-70
2021/08/15 01:22:46;;;;;;;1.08;0.35;;;;;;;;;;5051557;28;20095;-69
2021/08/15 01:25:17;;;;;;;0.95;0.40;;;;;;;;;;5035938;28;20397;-70
2021/08/15 01:27:45;;;;;;;1.08;0.50;;;;;;;;;;5051854;28;20082;-70
2021/08/15 01:30:13;;;;;;;1.02;0.40;;;;;;;;;;5050481;28;20041;-70
2021/08/15 01:32:44;;;;;;;1.30;0.57;;;;;;;;;;5065358;28;20028;-70
2021/08/15 01:35:12;;;;;;;2.60;0.40;;;;;;;;;;5034575;28;20489;-70
2021/08/15 01:37:39;;;;;;;1.48;0.40;;;;;;;;;;5049897;28;20028;-70
2021/08/15 01:40:08;;;;;;;0.52;0.20;;;;;;;;;;5050246;28;20032;-70
2021/08/15 01:42:35;;;;;;;0.22;0.20;;;;;;;;;;5050924;28;20139;-70
2021/08/15 01:45:07;;;;;;;1.20;0.40;;;;;;;;;;5053246;28;20025;-70
2021/08/15 01:47:34;;;;;;;0.55;0.32;;;;;;;;;;5052406;28;20022;-70
2021/08/15 01:50:01;;;;;;;0.90;0.30;;;;;;;;;;5049081;28;20116;-69
2021/08/15 01:52:28;;;;;;;0.60;0.50;;;;;;;;;;5046862;28;20041;-70
2021/08/15 01:54:55;;;;;;;1.25;0.20;;;;;;;;;;5048697;28;20029;-70
2021/08/15 01:57:23;;;;;;;6.80;0.52;;;;;;;;;;5047230;28;20037;-69
2021/08/15 01:59:50;;;;;;;1.85;0.52;;;;;;;;;;5050093;28;20099;-70
2021/08/15 02:02:17;;;;;;;2.42;0.50;;;;;;;;;;5045712;28;20049;-69
2021/08/15 02:04:44;;;;;;;0.95;0.30;;;;;;;;;;5052409;28;20114;-69
2021/08/15 02:07:11;;;;;;;0.73;0.40;;;;;;;;;;5040939;28;20087;-71
2021/08/15 02:09:38;;;;;;;2.22;0.38;;;;;;;;;;5050773;28;20137;-69
2021/08/15 02:12:05;;;;;;;1.00;0.50;;;;;;;;;;5052871;28;20025;-69
2021/08/15 02:14:32;;;;;;;1.13;0.30;;;;;;;;;;5056746;28;20381;-69
2021/08/15 02:17:00;;;;;;;0.65;0.30;;;;;;;;;;5051145;28;20040;-69
2021/08/15 02:19:27;;;;;;;1.15;0.40;;;;;;;;;;5055908;28;20064;-70
2021/08/15 02:21:54;;;;;;;1.38;0.47;;;;;;;;;;5044625;28;20036;-70
2021/08/15 02:24:21;;;;;;;1.27;0.32;;;;;;;;;;5050397;28;20040;-69
2021/08/15 02:26:48;;;;;;;1.85;0.50;;;;;;;;;;5050734;28;20024;-69
2021/08/15 02:29:15;;;;;;;1.33;0.50;;;;;;;;;;5049768;28;20033;-69
2021/08/15 02:31:42;;;;;;;2.17;0.40;;;;;;;;;;5043349;28;20440;-68
2021/08/15 02:34:10;;;;;;;0.75;0.40;;;;;;;;;;5049893;28;20389;-68
2021/08/15 02:36:37;;;;;;;1.02;0.32;;;;;;;;;;5051008;28;20036;-69
2021/08/15 02:39:04;;;;;;;1.58;0.52;;;;;;;;;;5053689;28;20044;-68
2021/08/15 02:41:31;;;;;;;0.35;0.30;;;;;;;;;;5036718;28;20110;-69
2021/08/15 02:43:58;;;;;;;1.95;0.40;;;;;;;;;;5046400;28;20437;-68
2021/08/15 02:46:26;;;;;;;0.70;0.20;;;;;;;;;;5048229;28;20025;-68
2021/08/15 02:48:53;;;;;;;0.70;0.30;;;;;;;;;;5061950;28;20120;-69
2021/08/15 02:51:20;;;;;;;0.50;0.30;;;;;;;;;;5070077;28;20107;-69
2021/08/15 02:53:47;;;;;;;1.00;0.65;;;;;;;;;;5068532;28;20062;-70
2021/08/15 02:56:14;;;;;;;0.90;0.50;;;;;;;;;;5072237;28;20505;-70
2021/08/15 02:58:41;;;;;;;0.85;0.40;;;;;;;;;;5058284;28;20082;-70
2021/08/15 03:01:08;;;;;;;0.90;0.30;;;;;;;;;;5049812;28;20512;-71
2021/08/15 03:03:37;;;;;;;1.80;0.73;;;;;;;;;;5048454;28;20045;-72
2021/08/15 03:06:04;;;;;;;1.77;0.70;;;;;;;;;;5039335;28;20049;-71
2021/08/15 03:08:31;;;;;;;0.90;0.50;;;;;;;;;;5045962;28;20531;-71
2021/08/15 03:10:58;;;;;;;1.15;0.70;;;;;;;;;;5052462;28;20032;-72
2021/08/15 03:13:25;;;;;;;1.23;0.50;;;;;;;;;;5066393;28;20094;-71
2021/08/15 03:15:52;;;;;;;1.55;1.17;;;;;;;;;;5048989;28;20052;-71
2021/08/15 03:18:20;;;;;;;1.27;0.45;;;;;;;;;;5060650;28;20036;-71
2021/08/15 03:20:47;;;;;;;0.68;0.40;;;;;;;;;;5023353;28;20107;-71
2021/08/15 03:23:14;;;;;;;0.73;0.35;;;;;;;;;;5044293;28;20041;-71
2021/08/15 03:25:41;;;;;;;0.70;0.40;;;;;;;;;;5049746;28;20043;-72
2021/08/15 03:28:08;;;;;;;0.85;0.40;;;;;;;;;;5045138;28;20033;-71
2021/08/15 03:30:35;;;;;;;1.23;0.45;;;;;;;;;;5051292;28;20068;-72
2021/08/15 03:33:03;;;;;;;2.60;0.60;;;;;;;;;;5038442;28;20048;-72
2021/08/15 03:35:30;;;;;;;1.10;0.70;;;;;;;;;;5036796;28;20041;-71
2021/08/15 03:37:57;;;;;;;3.17;0.73;;;;;;;;;;5044753;28;20036;-72
2021/08/15 03:40:24;;;;;;;1.05;0.52;;;;;;;;;;5034250;28;20041;-72
2021/08/15 03:42:51;;;;;;;0.85;0.30;;;;;;;;;;5048081;28;20521;-71
2021/08/15 03:45:18;;;;;;;3.83;0.50;;;;;;;;;;5033881;28;20091;-71
2021/08/15 03:47:45;;;;;;;1.35;0.40;;;;;;;;;;5038447;28;20180;-71
2021/08/15 03:50:13;;;;;;;2.88;0.50;;;;;;;;;;5036028;28;20404;-71
2021/08/15 03:52:43;;;;;;;1.58;0.40;;;;;;;;;;5031641;28;21128;-71
2021/08/15 03:55:11;;;;;;;1.38;0.73;;;;;;;;;;5030928;28;20056;-71
2021/08/15 03:57:42;;;;;;;0.90;0.50;;;;;;;;;;5049431;28;20112;-71
2021/08/15 04:00:09;;;;;;;1.05;0.60;;;;;;;;;;5050583;28;20083;-72
2021/08/15 04:02:37;;;;;;;0.73;0.40;;;;;;;;;;5032480;28;20497;-72
2021/08/15 04:05:04;;;;;;;0.88;0.50;;;;;;;;;;5049701;28;20449;-71
2021/08/15 04:07:32;;;;;;;1.85;0.85;;;;;;;;;;5049073;28;20102;-70
2021/08/15 04:10:00;;;;;;;1.85;0.80;;;;;;;;;;5038295;28;20040;-71
2021/08/15 04:12:27;;;;;;;1.08;0.50;;;;;;;;;;5033102;28;20037;-72
2021/08/15 04:14:54;;;;;;;1.08;0.60;;;;;;;;;;5047708;28;20077;-71
2021/08/15 04:17:21;;;;;;;0.80;0.40;;;;;;;;;;5031263;28;20033;-71
2021/08/15 04:19:48;;;;;;;1.85;0.60;;;;;;;;;;5033267;28;20037;-71
2021/08/15 04:22:15;;;;;;;1.10;0.70;;;;;;;;;;5032218;28;20130;-72
2021/08/15 04:24:42;;;;;;;1.55;0.77;;;;;;;;;;5050855;28;20389;-70
2021/08/15 04:27:09;;;;;;;2.03;0.90;;;;;;;;;;5038932;28;20045;-72
2021/08/15 04:29:39;;;;;;;1.75;0.50;;;;;;;;;;5074072;28;20037;-71
2021/08/15 04:32:07;;;;;;;2.17;0.68;;;;;;;;;;5055209;28;20438;-70
2021/08/15 04:34:34;;;;;;;1.17;0.73;;;;;;;;;;5065274;28;20060;-71
2021/08/15 04:37:04;;;;;;;1.65;1.05;;;;;;;;;;5051083;28;20061;-71
2021/08/15 04:39:31;;;;;;;1.20;0.60;;;;;;;;;;5034785;28;20029;-71
2021/08/15 04:41:58;;;;;;;1.30;0.65;;;;;;;;;;5053463;28;20029;-70
2021/08/15 04:44:25;;;;;;;1.23;0.40;;;;;;;;;;5066391;28;20032;-71
2021/08/15 04:46:52;;;;;;;2.28;0.50;;;;;;;;;;5053010;28;20029;-70
2021/08/15 04:49:19;;;;;;;0.75;0.40;;;;;;;;;;5056606;28;20045;-71
2021/08/15 04:51:47;;;;;;;1.15;0.60;;;;;;;;;;5052543;28;20033;-71
2021/08/15 04:54:14;;;;;;;1.50;0.75;;;;;;;;;;5047976;28;20060;-71
2021/08/15 04:56:41;;;;;;;1.30;0.57;;;;;;;;;;5036622;28;20036;-71
2021/08/15 04:59:08;;;;;;;0.98;0.50;;;;;;;;;;5046983;28;20065;-71
2021/08/15 05:01:35;;;;;;;2.13;0.60;;;;;;;;;;5051117;28;20405;-71
2021/08/15 05:04:02;;;;;;;0.93;0.60;;;;;;;;;;5053197;28;20041;-71
2021/08/15 05:06:29;;;;;;;2.80;0.50;;;;;;;;;;5052326;28;20393;-71
2021/08/15 05:08:56;;;;;;;1.10;0.75;;;;;;;;;;5047350;28;20021;-70
2021/08/15 05:11:23;;;;;;;0.88;0.63;;;;;;;;;;5047086;28;20393;-70
2021/08/15 05:13:50;;;;;;;2.78;0.70;;;;;;;;;;5049311;28;20115;-70
2021/08/15 05:16:18;;;;;;;1.45;0.50;;;;;;;;;;5054374;28;20029;-71
2021/08/15 05:18:45;;;;;;;15.50;1.65;;;;;;;;;;5051611;28;20069;-71
2021/08/15 05:21:12;;;;;;;1.15;0.60;;;;;;;;;;5052856;28;20104;-72
2021/08/15 05:23:39;;;;;;;4.57;0.82;;;;;;;;;;5052286;28;20523;-71
2021/08/15 05:26:06;;;;;;;5.63;0.90;;;;;;;;;;5050437;28;20064;-70
2021/08/15 05:28:33;;;;;;;2.22;0.80;;;;;;;;;;5054178;28;20061;-70
2021/08/15 05:31:00;;;;;;;4.20;0.85;;;;;;;;;;5053773;28;20032;-70
2021/08/15 05:33:28;;;;;;;1.80;0.95;;;;;;;;;;5034211;28;20039;-70
2021/08/15 05:35:55;;;;;;;1.05;0.60;;;;;;;;;;5046698;28;20109;-73
2021/08/15 05:38:22;;;;;;;0.88;0.50;;;;;;;;;;5058186;28;20037;-70
2021/08/15 05:40:49;;;;;;;1.02;0.47;;;;;;;;;;5048685;28;20033;-70
2021/08/15 05:43:16;;;;;;;1.17;0.60;;;;;;;;;;5052724;28;20041;-70
2021/08/15 05:45:43;;;;;;;3.80;0.65;;;;;;;;;;5035310;28;20501;-70
2021/08/15 05:48:10;;;;;;;1.00;0.47;;;;;;;;;;5050042;28;20041;-70
2021/08/15 05:50:37;;;;;;;3.13;0.95;;;;;;;;;;5046997;28;20022;-70
2021/08/15 05:53:05;;;;;;;1.48;0.50;;;;;;;;;;5051952;28;20037;-71
2021/08/15 05:55:32;;;;;;;1.58;0.50;;;;;;;;;;5049891;28;20119;-69
2021/08/15 05:57:59;;;;;;;0.90;0.40;;;;;;;;;;5052784;28;20434;-69
2021/08/15 06:00:26;;;;;;;1.05;0.55;;;;;;;;;;5050529;28;20029;-68
2021/08/15 06:02:53;;;;;;;2.63;0.70;;;;;;;;;;5046808;28;20059;-69
2021/08/15 06:05:20;;;;;;;1.30;0.73;;;;;;;;;;5052330;28;20029;-69
2021/08/15 06:07:47;;;;;;;2.20;1.20;;;;;;;;;;5052612;28;20049;-69
2021/08/15 06:10:15;;;;;;;1.27;0.65;;;;;;;;;;5052841;28;20481;-69
2021/08/15 06:12:42;;;;;;;1.50;0.40;;;;;;;;;;5037853;28;20460;-69
2021/08/15 06:15:13;;;;;;;1.45;0.70;;;;;;;;;;5053005;28;20132;-68
2021/08/15 06:17:43;;;;;;;2.83;1.00;;;;;;;;;;5053038;28;20490;-69
2021/08/15 06:20:12;;;;;;;2.33;1.05;;;;;;;;;;5052671;28;20029;-68
2021/08/15 06:22:43;;;;;;;0.80;0.60;;;;;;;;;;5052833;28;20041;-70
2021/08/15 06:25:10;;;;;;;1.20;0.65;;;;;;;;;;5047664;28;20485;-70
2021/08/15 06:27:43;;;;;;;1.77;0.47;;;;;;;;;;5052492;28;20087;-69
2021/08/15 06:30:11;;;;;;;1.65;0.68;;;;;;;;;;5052560;28;20386;-70
2021/08/15 06:32:51;;;;;;;2.78;0.70;;;;;;;;;;5052839;28;20048;-70
2021/08/15 06:35:23;;;;;;;2.17;0.70;;;;;;;;;;5033150;28;20022;-70
2021/08/15 06:37:52;;;;;;;1.65;1.05;;;;;;;;;;5031551;28;20038;-70
2021/08/15 06:40:19;;;;;;;1.13;0.90;;;;;;;;;;5031941;28;20550;-70
2021/08/15 06:42:47;;;;;;;2.45;0.75;;;;;;;;;;5043654;28;20051;-69
2021/08/15 06:45:14;;;;;;;1.38;0.52;;;;;;;;;;5035274;28;20398;-69
2021/08/15 06:47:41;;;;;;;2.33;0.75;;;;;;;;;;5035057;28;20045;-69
2021/08/15 06:50:09;;;;;;;3.65;0.88;;;;;;;;;;5051248;28;20056;-69
2021/08/15 06:52:36;;;;;;;1.13;0.90;;;;;;;;;;5045960;28;20036;-69
2021/08/15 06:55:04;;;;;;;2.85;1.15;;;;;;;;;;5035546;28;20513;-69
2021/08/15 06:57:31;;;;;;;1.63;0.98;;;;;;;;;;5050968;28;20029;-69
2021/08/15 06:59:58;;;;;;;2.40;1.27;;;;;;;;;;5043686;28;20433;-69
2021/08/15 07:02:25;;;;;;;6.07;3.00;;;;;;;;;;5050768;28;20109;-68
2021/08/15 07:04:52;;;;;;;7.50;4.25;;;;;;;;;;5045258;28;20591;-70
2021/08/15 07:07:19;;;;;;;7.18;4.68;;;;;;;;;;5050118;28;20051;-69
2021/08/15 07:09:46;;;;;;;3.80;2.42;;;;;;;;;;5049826;28;20037;-70
2021/08/15 07:12:14;;;;;;;5.63;2.05;;;;;;;;;;5039700;28;20045;-70
2021/08/15 07:14:42;;;;;;;4.70;2.85;;;;;;;;;;5053055;28;20043;-70
2021/08/15 07:17:09;;;;;;;2.90;1.77;;;;;;;;;;5051271;28;20029;-70
2021/08/15 07:19:36;;;;;;;2.30;1.50;;;;;;;;;;5044730;28;20371;-70
2021/08/15 07:22:03;;;;;;;2.53;1.58;;;;;;;;;;5029944;28;20112;-69
2021/08/15 07:24:31;;;;;;;2.05;1.52;;;;;;;;;;5048132;28;20045;-69
2021/08/15 07:26:59;;;;;;;2.53;1.15;;;;;;;;;;5048048;28;20125;-69
2021/08/15 07:29:26;;;;;;;2.92;1.50;;;;;;;;;;5050640;28;20037;-68
2021/08/15 07:31:53;;;;;;;2.47;1.50;;;;;;;;;;5050539;28;20032;-69
2021/08/15 07:34:21;;;;;;;2.20;1.55;;;;;;;;;;5049071;28;20086;-69
2021/08/15 07:36:51;;;;;;;2.25;1.38;;;;;;;;;;5031824;28;20238;-69
2021/08/15 07:39:18;;;;;;;2.75;1.33;;;;;;;;;;5039027;28;20121;-69
2021/08/15 07:41:45;;;;;;;1.73;1.30;;;;;;;;;;5046757;28;20033;-70
2021/08/15 07:44:12;;;;;;;5.25;2.20;;;;;;;;;;5036961;28;20067;-69
2021/08/15 07:46:40;;;;;;;3.45;1.90;;;;;;;;;;5049800;28;20048;-69
2021/08/15 07:49:07;;;;;;;3.70;1.38;;;;;;;;;;5030309;28;20037;-70
2021/08/15 07:51:34;;;;;;;2.70;1.50;;;;;;;;;;5051613;28;20040;-73
2021/08/15 07:54:01;;;;;;;2.78;1.50;;;;;;;;;;5046592;28;20045;-71
2021/08/15 07:56:28;;;;;;;3.58;1.48;;;;;;;;;;5043963;28;20144;-72
2021/08/15 07:58:55;;;;;;;3.22;2.58;;;;;;;;;;5047912;28;20029;-71
2021/08/15 08:01:22;;;;;;;2.85;1.92;;;;;;;;;;5039400;28;20033;-72
2021/08/15 08:03:50;;;;;;;4.78;2.13;;;;;;;;;;5052897;28;20080;-73
2021/08/15 08:06:17;;;;;;;5.30;2.20;;;;;;;;;;5055431;28;20120;-72
2021/08/15 08:08:44;;;;;;;3.55;2.03;;;;;;;;;;5034347;28;20490;-71
2021/08/15 08:11:11;;;;;;;3.05;1.88;;;;;;;;;;5033840;28;20461;-71
2021/08/15 08:13:38;;;;;;;7.53;2.55;;;;;;;;;;5055868;28;20056;-72
2021/08/15 08:16:05;;;;;;;4.55;2.20;;;;;;;;;;5055561;28;20055;-70
2021/08/15 08:18:33;;;;;;;5.00;2.30;;;;;;;;;;5055662;28;20450;-72
2021/08/15 08:21:00;;;;;;;4.30;3.10;;;;;;;;;;5037436;28;20033;-71
2021/08/15 08:23:28;;;;;;;5.60;3.55;;;;;;;;;;5055554;28;20405;-71
2021/08/15 08:25:57;;;;;;;6.50;4.00;;;;;;;;;;5055110;28;20445;-73
2021/08/15 08:28:24;;;;;;;9.70;4.28;;;;;;;;;;5052737;28;20037;-73
2021/08/15 08:30:51;;;;;;;5.32;3.90;;;;;;;;;;5049845;28;20051;-72
2021/08/15 08:33:19;;;;;;;6.05;3.65;;;;;;;;;;5051713;28;20044;-71
2021/08/15 08:35:46;;;;;;;8.93;4.13;;;;;;;;;;5035477;28;20128;-71
2021/08/15 08:38:13;;;;;;;6.68;4.13;;;;;;;;;;5054487;28;20037;-72
2021/08/15 08:40:41;;;;;;;5.75;3.47;;;;;;;;;;5043188;28;20136;-71
2021/08/15 08:43:08;;;;;;;5.63;3.35;;;;;;;;;;5049811;28;20042;-71
2021/08/15 08:45:39;;;;;;;5.25;3.53;;;;;;;;;;5053581;28;20033;-71
2021/08/15 08:48:06;;;;;;;5.38;2.60;;;;;;;;;;5052690;28;20032;-73
2021/08/15 08:50:33;;;;;;;5.80;3.42;;;;;;;;;;5047573;28;20036;-73
2021/08/15 08:53:01;;;;;;;4.32;2.67;;;;;;;;;;5047314;28;20048;-72
2021/08/15 08:55:28;;;;;;;4.75;2.75;;;;;;;;;;5052729;28;20029;-73
2021/08/15 08:57:55;;;;;;;5.55;3.00;;;;;;;;;;5035091;28;20084;-73
2021/08/15 09:00:22;;;;;;;5.50;2.58;;;;;;;;;;5033815;28;20045;-73
2021/08/15 09:02:50;;;;;;;4.35;2.28;;;;;;;;;;5053426;28;20041;-72
2021/08/15 09:05:29;;;;;;;4.68;2.05;;;;;;;;;;5053608;28;20035;-73
2021/08/15 09:07:56;;;;;;;3.90;2.67;;;;;;;;;;5052995;28;20045;-73
2021/08/15 09:10:29;;;;;;;5.13;2.65;;;;;;;;;;5035741;28;20078;-72
2021/08/15 09:13:01;;;;;;;6.40;2.88;;;;;;;;;;5053192;28;20041;-71
2021/08/15 09:15:30;;;;;;;2.97;2.05;;;;;;;;;;5052622;28;20445;-71
2021/08/15 09:17:57;;;;;;;3.72;2.20;;;;;;;;;;5052236;28;20362;-71
2021/08/15 09:20:45;;;;;;;7.38;2.47;;;;;;;;;;5053120;28;20044;-72
2021/08/15 09:23:22;;;;;;;8.15;3.13;;;;;;;;;;5043792;28;20045;-72
2021/08/15 09:26:08;;;;;;;3.30;1.80;;;;;;;;;;5033854;28;20034;-71
2021/08/15 09:28:35;;;;;;;2.58;1.67;;;;;;;;;;5052482;28;20041;-70
2021/08/15 09:31:15;;;;;;;2.63;1.40;;;;;;;;;;5040784;28;20033;-70
2021/08/15 09:33:43;;;;;;;3.22;1.58;;;;;;;;;;5052691;28;20041;-72
2021/08/15 09:36:10;;;;;;;4.32;1.58;;;;;;;;;;5053071;28;20041;-70
2021/08/15 09:38:47;;;;;;;5.30;2.15;;;;;;;;;;5053028;28;20091;-71
2021/08/15 09:41:24;;;;;;;2.38;1.52;;;;;;;;;;5050292;28;20029;-71
2021/08/15 09:44:11;;;;;;;3.10;1.70;;;;;;;;;;5045600;28;20045;-72
2021/08/15 09:46:56;;;;;;;2.63;1.98;;;;;;;;;;5051680;28;20127;-73
2021/08/15 09:49:23;;;;;;;4.80;2.05;;;;;;;;;;5048905;28;20033;-75
2021/08/15 09:51:50;;;;;;;4.20;1.58;;;;;;;;;;5035031;28;20037;-71
2021/08/15 09:54:17;;;;;;;5.20;2.25;;;;;;;;;;5052783;28;20454;-70
2021/08/15 09:56:44;;;;;;;9.50;4.43;;;;;;;;;;5052945;28;20108;-71
2021/08/15 09:59:13;;;;;;;5.07;2.78;;;;;;;;;;5052773;28;20037;-72
2021/08/15 10:01:48;;;;;;;4.82;2.67;;;;;;;;;;5051629;28;20021;-71
2021/08/15 10:04:15;;;;;;;3.78;2.13;;;;;;;;;;5060896;28;20474;-71
2021/08/15 10:06:44;;;;;;;3.72;2.35;;;;;;;;;;5052515;28;20041;-72
2021/08/15 10:09:11;;;;;;;5.38;2.65;;;;;;;;;;5054760;28;20044;-71
2021/08/15 10:11:39;;;;;;;2.90;2.22;;;;;;;;;;5053125;28;20052;-71
2021/08/15 10:14:07;;;;;;;4.20;1.98;;;;;;;;;;5052747;28;20422;-71
2021/08/15 10:16:52;;;;;;;3.30;1.83;;;;;;;;;;5058670;28;20452;-71
2021/08/15 10:19:29;;;;;;;3.92;2.08;;;;;;;;;;5038989;28;20045;-71
2021/08/15 10:21:58;;;;;;;2.60;1.67;;;;;;;;;;5072062;28;20437;-71
2021/08/15 10:24:40;;;;;;;5.00;1.58;;;;;;;;;;5068058;28;20045;-71
2021/08/15 10:27:08;;;;;;;4.45;1.70;;;;;;;;;;5037236;28;20568;-71
2021/08/15 10:29:46;;;;;;;4.40;1.48;;;;;;;;;;5052679;28;20033;-71
2021/08/15 10:32:31;;;;;;;4.50;1.95;;;;;;;;;;5052489;28;20040;-72
2021/08/15 10:34:58;;;;;;;3.00;1.25;;;;;;;;;;5032340;28;20041;-72
2021/08/15 10:37:25;;;;;;;2.65;1.35;;;;;;;;;;5046362;28;20100;-71
2021/08/15 10:40:05;;;;;;;2.25;1.08;;;;;;;;;;5051739;28;20029;-71
2021/08/15 10:42:42;;;;;;;2.65;1.15;;;;;;;;;;5045870;28;20150;-71
2021/08/15 10:45:10;;;;;;;2.47;1.30;;;;;;;;;;5051432;28;20055;-71
2021/08/15 10:47:38;;;;;;;3.20;1.13;;;;;;;;;;5055016;28;20025;-70
2021/08/15 10:50:08;;;;;;;3.00;1.70;;;;;;;;;;5071362;28;20032;-71
2021/08/15 10:52:42;;;;;;;2.50;0.93;;;;;;;;;;5068479;28;20035;-71
2021/08/15 10:55:10;;;;;;;3.35;1.40;;;;;;;;;;5048342;28;20032;-71
2021/08/15 10:57:39;;;;;;;2.28;1.23;;;;;;;;;;5051289;28;20052;-71
2021/08/15 11:00:29;;;;;;;2.95;1.10;;;;;;;;;;5051813;28;20040;-71
2021/08/15 11:03:00;;;;;;;1.73;1.02;;;;;;;;;;5047331;28;20145;-72
2021/08/15 11:05:40;;;;;;;3.67;1.42;;;;;;;;;;5034056;28;20049;-72
2021/08/15 11:08:33;;;;;;;1.92;1.33;;;;;;;;;;5033544;28;20053;-71
2021/08/15 11:11:19;;;;;;;4.15;1.85;;;;;;;;;;5020612;28;20029;-72
2021/08/15 11:13:46;;;;;;;3.50;1.67;;;;;;;;;;5018733;28;20068;-72
2021/08/15 11:16:28;;;;;;;3.65;1.88;;;;;;;;;;5047372;28;20036;-71
2021/08/15 11:19:11;;;;;;;5.57;2.53;;;;;;;;;;5044488;28;20043;-72
2021/08/15 11:21:56;;;;;;;3.63;1.52;;;;;;;;;;5039187;28;20060;-72
2021/08/15 11:24:23;;;;;;;5.43;1.90;;;;;;;;;;5031552;28;20472;-72
2021/08/15 11:26:51;;;;;;;3.33;1.52;;;;;;;;;;5028650;28;20139;-72
2021/08/15 11:29:21;;;;;;;3.03;1.55;;;;;;;;;;5012937;28;20034;-71
2021/08/15 11:31:48;;;;;;;2.40;1.20;;;;;;;;;;5029800;28;20026;-71
2021/08/15 11:34:15;;;;;;;3.17;1.40;;;;;;;;;;5030790;28;20049;-70
2021/08/15 11:36:43;;;;;;;3.00;1.52;;;;;;;;;;5027378;28;20104;-71
2021/08/15 11:39:10;;;;;;;3.45;1.20;;;;;;;;;;5038673;28;20033;-71
2021/08/15 11:41:37;;;;;;;4.95;1.48;;;;;;;;;;5030870;28;20076;-71
2021/08/15 11:44:04;;;;;;;1.85;1.05;;;;;;;;;;5011817;28;20045;-70
2021/08/15 11:46:32;;;;;;;5.15;1.73;;;;;;;;;;5035550;28;20079;-70
2021/08/15 11:48:59;;;;;;;3.60;1.35;;;;;;;;;;5033448;28;20056;-70
2021/08/15 11:51:26;;;;;;;2.35;1.27;;;;;;;;;;5014615;28;20037;-70
2021/08/15 11:53:53;;;;;;;4.38;1.73;;;;;;;;;;5038978;28;20045;-72
2021/08/15 11:56:21;;;;;;;3.15;1.60;;;;;;;;;;5033415;28;20033;-71
2021/08/15 11:58:50;;;;;;;2.58;1.13;;;;;;;;;;5020666;28;20592;-71
2021/08/15 12:01:20;;;;;;;2.03;0.80;;;;;;;;;;5022256;28;20486;-71
2021/08/15 12:03:58;;;;;;;5.50;1.50;;;;;;;;;;5031477;28;20045;-69
2021/08/15 12:06:25;;;;;;;4.90;1.55;;;;;;;;;;5049156;28;20045;-72
2021/08/15 12:08:52;;;;;;;3.60;1.75;;;;;;;;;;5049746;28;20382;-72
2021/08/15 12:11:26;;;;;;;2.95;1.08;;;;;;;;;;5029817;28;20096;-72
2021/08/15 12:13:55;;;;;;;6.57;1.30;;;;;;;;;;5046601;28;20041;-72
2021/08/15 12:16:23;;;;;;;10.68;1.30;;;;;;;;;;5016970;28;20041;-71
2021/08/15 12:18:50;;;;;;;4.07;1.10;;;;;;;;;;5045092;28;20116;-70
2021/08/15 12:21:17;;;;;;;4.40;0.88;;;;;;;;;;5041792;28;20036;-71
2021/08/15 12:24:03;;;;;;;3.22;1.20;;;;;;;;;;5049834;28;20583;-71
2021/08/15 12:26:50;;;;;;;3.42;1.60;;;;;;;;;;5049708;28;20041;-71
2021/08/15 12:29:37;;;;;;;3.53;0.80;;;;;;;;;;5019030;28;20033;-70
2021/08/15 12:32:05;;;;;;;6.85;2.38;;;;;;;;;;5050046;28;20100;-71
2021/08/15 12:34:34;;;;;;;4.65;0.93;;;;;;;;;;5049373;28;20033;-71
2021/08/15 12:37:19;;;;;;;1.95;1.10;;;;;;;;;;5048471;28;20076;-70
2021/08/15 12:39:47;;;;;;;2.88;1.10;;;;;;;;;;5046416;28;20029;-71
2021/08/15 12:42:16;;;;;;;4.35;1.20;;;;;;;;;;5034367;28;20044;-71
2021/08/15 12:44:47;;;;;;;2.00;1.10;;;;;;;;;;5044118;28;20040;-70
2021/08/15 12:47:15;;;;;;;2.70;0.98;;;;;;;;;;5048335;28;20108;-71
2021/08/15 12:49:46;;;;;;;4.28;1.20;;;;;;;;;;5049855;28;20026;-71
2021/08/15 12:52:16;;;;;;;2.10;0.90;;;;;;;;;;5051512;28;20447;-71
2021/08/15 12:55:01;;;;;;;1.90;1.30;;;;;;;;;;5049744;28;20033;-70
2021/08/15 12:57:28;;;;;;;4.22;1.15;;;;;;;;;;5053791;28;20036;-70
2021/08/15 12:59:56;;;;;;;5.32;2.03;;;;;;;;;;5054478;28;20040;-70
2021/08/15 13:02:23;;;;;;;5.47;3.08;;;;;;;;;;5053581;28;20108;-70
2021/08/15 13:04:50;;;;;;;2.80;1.27;;;;;;;;;;5053592;28;20078;-71
2021/08/15 13:07:18;;;;;;;3.80;1.00;;;;;;;;;;5051439;28;20095;-70
2021/08/15 13:09:45;;;;;;;3.25;1.20;;;;;;;;;;5053173;28;20052;-70
2021/08/15 13:12:12;;;;;;;2.95;1.17;;;;;;;;;;5053513;28;20029;-70
2021/08/15 13:14:40;;;;;;;2.13;1.30;;;;;;;;;;5036408;28;20144;-71
2021/08/15 13:17:07;;;;;;;3.63;1.10;;;;;;;;;;5054125;28;20032;-70
2021/08/15 13:19:34;;;;;;;1.85;1.08;;;;;;;;;;5053653;28;20439;-70
2021/08/15 13:22:01;;;;;;;1.52;1.10;;;;;;;;;;5053808;28;20037;-71
2021/08/15 13:24:28;;;;;;;2.22;1.05;;;;;;;;;;5050149;28;20041;-71
2021/08/15 13:26:55;;;;;;;2.63;1.52;;;;;;;;;;5038375;28;20109;-71
2021/08/15 13:29:23;;;;;;;4.47;1.20;;;;;;;;;;5039048;28;20402;-71
2021/08/15 13:31:50;;;;;;;3.67;1.20;;;;;;;;;;5033777;28;20367;-71
2021/08/15 13:34:17;;;;;;;3.72;1.10;;;;;;;;;;5052470;28;20029;-71
2021/08/15 13:36:44;;;;;;;2.75;1.25;;;;;;;;;;5046800;28;20052;-71
2021/08/15 13:39:11;;;;;;;1.73;1.02;;;;;;;;;;5047577;28;20497;-71
2021/08/15 13:41:38;;;;;;;4.03;1.20;;;;;;;;;;5053530;28;20041;-71
2021/08/15 13:44:05;;;;;;;2.95;1.30;;;;;;;;;;5052888;28;20041;-71
2021/08/15 13:46:33;;;;;;;2.50;1.15;;;;;;;;;;5043716;28;20049;-71
2021/08/15 13:49:00;;;;;;;3.33;1.30;;;;;;;;;;5050927;28;20041;-71
2021/08/15 13:51:27;;;;;;;4.20;1.10;;;;;;;;;;5049776;28;20249;-71
2021/08/15 13:53:55;;;;;;;1.08;0.80;;;;;;;;;;5035876;28;20453;-71
2021/08/15 13:56:22;;;;;;;3.67;1.40;;;;;;;;;;5045526;28;20531;-71
2021/08/15 13:58:49;;;;;;;3.08;1.00;;;;;;;;;;5049833;28;20025;-71
2021/08/15 14:01:16;;;;;;;2.88;1.35;;;;;;;;;;5030747;28;20037;-70
2021/08/15 14:03:43;;;;;;;3.75;1.25;;;;;;;;;;5051400;28;20076;-71
2021/08/15 14:06:10;;;;;;;1.75;1.00;;;;;;;;;;5047460;28;20045;-71
2021/08/15 14:08:37;;;;;;;3.72;1.83;;;;;;;;;;5045866;28;20040;-70
2021/08/15 14:11:04;;;;;;;3.38;1.30;;;;;;;;;;5051352;28;20076;-70
2021/08/15 14:13:31;;;;;;;3.72;1.20;;;;;;;;;;5038427;28;20064;-71
2021/08/15 14:15:59;;;;;;;2.60;1.00;;;;;;;;;;5050292;28;20039;-70
2021/08/15 14:18:27;;;;;;;3.75;1.10;;;;;;;;;;5047589;28;20037;-71
2021/08/15 14:20:54;;;;;;;1.80;1.20;;;;;;;;;;5049557;28;20367;-71
2021/08/15 14:23:21;;;;;;;2.38;1.20;;;;;;;;;;5049230;28;20146;-71
2021/08/15 14:25:50;;;;;;;3.95;1.00;;;;;;;;;;5050336;28;20033;-71
2021/08/15 14:28:18;;;;;;;2.65;1.05;;;;;;;;;;5048866;28;20029;-71
2021/08/15 14:30:45;;;;;;;3.50;1.13;;;;;;;;;;5040449;28;20114;-71
2021/08/15 14:33:13;;;;;;;2.10;1.00;;;;;;;;;;5023322;28;20045;-70
2021/08/15 14:35:40;;;;;;;3.38;1.00;;;;;;;;;;5050272;28;20029;-70
2021/08/15 14:38:08;;;;;;;2.65;0.90;;;;;;;;;;5053540;28;20063;-70
2021/08/15 14:40:35;;;;;;;2.83;1.00;;;;;;;;;;5063872;28;20079;-71
2021/08/15 14:43:02;;;;;;;2.50;1.42;;;;;;;;;;5050232;28;20061;-71
2021/08/15 14:45:29;;;;;;;2.15;0.77;;;;;;;;;;5049901;28;20119;-71
2021/08/15 14:47:56;;;;;;;3.45;1.30;;;;;;;;;;5052091;28;20036;-71
2021/08/15 14:50:23;;;;;;;3.17;1.10;;;;;;;;;;5051514;28;20082;-71
2021/08/15 14:52:50;;;;;;;3.55;1.33;;;;;;;;;;5034803;28;20033;-71